Time;durP1;ratioP1;P1;durP2;ratioP2;P2;SDS_P1;SDS_P2;PMS_P1;PMS_P2;Temp;Humidity;BMP_temperature;BMP_pressure;BME280_temperature;BME280_humidity;BME280_pressure;Samples;Min_cycle;Max_cycle;Signal;HPM_P1;HPM_P2
2023/02/20 00:00:23;;;;;;;;;;;;;;;3.14;99.01;99283.68;67728;1279;1017153;-62
2023/02/20 00:03:46;;;;;;;;;;;;;;;3.20;98.44;99292.52;67803;1279;1015944;-61
2023/02/20 00:06:48;;;;;;;;;;;;;;;3.20;99.07;99299.09;67807;1279;1016452;-60
2023/02/20 00:09:51;;;;;;;;;;;;;;;3.11;99.61;99298.96;67750;1279;1016372;-62
2023/02/20 00:12:53;;;;;;;;;;;;;;;3.09;100.00;99298.14;67762;1279;1016250;-61
2023/02/20 00:15:56;;;;;;;;;;;;;;;3.09;100.00;99294.17;67753;1279;1016446;-61
2023/02/20 00:18:58;;;;;;;;;;;;;;;3.08;100.00;99289.36;67781;1279;1016245;-61
2023/02/20 00:22:01;;;;;;;;;;;;;;;3.06;100.00;99289.73;67769;1279;1016414;-61
2023/02/20 00:25:03;;;;;;;;;;;;;;;3.02;100.00;99285.52;67759;1279;1016407;-62
2023/02/20 00:28:06;;;;;;;;;;;;;;;3.07;100.00;99276.58;67809;1279;1016372;-61
2023/02/20 00:31:08;;;;;;;;;;;;;;;3.09;100.00;99277.77;67765;1279;1016448;-61
2023/02/20 00:34:11;;;;;;;;;;;;;;;3.07;100.00;99272.95;67759;1279;1016057;-61
2023/02/20 00:37:13;;;;;;;;;;;;;;;3.14;100.00;99277.12;67763;1279;1016562;-62
2023/02/20 00:40:16;;;;;;;;;;;;;;;3.17;100.00;99268.94;67754;1279;1016395;-62
2023/02/20 00:43:18;;;;;;;;;;;;;;;3.08;100.00;99265.33;67782;1279;1016622;-60
2023/02/20 00:46:21;;;;;;;;;;;;;;;3.06;100.00;99259.86;67796;1279;1018798;-61
2023/02/20 00:49:23;;;;;;;;;;;;;;;3.09;100.00;99268.95;67742;1279;1016146;-61
2023/02/20 00:52:26;;;;;;;;;;;;;;;3.07;100.00;99272.27;67778;1279;1016765;-62
2023/02/20 00:55:28;;;;;;;;;;;;;;;3.03;100.00;99276.16;67805;1279;1016286;-61
2023/02/20 00:58:30;;;;;;;;;;;;;;;3.03;100.00;99289.30;67734;1279;1016127;-61
2023/02/20 01:01:33;;;;;;;;;;;;;;;3.03;100.00;99292.76;67756;1279;1016507;-61
2023/02/20 01:04:35;;;;;;;;;;;;;;;3.03;100.00;99293.96;67774;1279;1016852;-61
2023/02/20 01:07:38;;;;;;;;;;;;;;;3.04;100.00;99303.27;67715;1279;1016459;-61
2023/02/20 01:10:40;;;;;;;;;;;;;;;3.06;100.00;99298.05;67816;1279;1018430;-62
2023/02/20 01:13:43;;;;;;;;;;;;;;;2.99;100.00;99301.66;67761;1279;1016869;-61
2023/02/20 01:16:45;;;;;;;;;;;;;;;2.96;100.00;99294.98;67804;1279;1016361;-61
2023/02/20 01:19:48;;;;;;;;;;;;;;;2.95;100.00;99301.39;67710;1279;1018003;-61
2023/02/20 01:22:50;;;;;;;;;;;;;;;2.95;100.00;99296.90;67784;1279;1016122;-61
2023/02/20 01:25:53;;;;;;;;;;;;;;;3.02;100.00;99289.48;67796;1279;1016339;-62
2023/02/20 01:28:56;;;;;;;;;;;;;;;3.07;100.00;99283.86;67750;1279;1016304;-61
2023/02/20 01:31:58;;;;;;;;;;;;;;;3.16;99.75;99282.61;67724;1279;1016123;-62
2023/02/20 01:35:00;;;;;;;;;;;;;;;3.23;99.44;99275.19;67750;1279;1016198;-61
2023/02/20 01:38:05;;;;;;;;;;;;;;;3.22;99.13;99269.66;67762;1279;1016360;-61
2023/02/20 01:41:08;;;;;;;;;;;;;;;3.06;99.94;99268.32;67766;1279;1016235;-62
2023/02/20 01:44:10;;;;;;;;;;;;;;;3.04;99.98;99262.65;67744;1279;1016452;-61
2023/02/20 01:47:13;;;;;;;;;;;;;;;2.97;100.00;99265.92;67801;1279;1016732;-61
2023/02/20 01:50:15;;;;;;;;;;;;;;;2.91;100.00;99260.73;67806;1279;1016252;-61
2023/02/20 01:53:17;;;;;;;;;;;;;;;2.94;100.00;99259.09;67753;1279;1018392;-61
2023/02/20 01:56:20;;;;;;;;;;;;;;;2.98;100.00;99258.48;67754;1279;1016450;-61
2023/02/20 01:59:22;;;;;;;;;;;;;;;2.94;99.81;99258.75;67727;1279;1016364;-61
2023/02/20 02:02:25;;;;;;;;;;;;;;;2.95;99.65;99254.91;67793;1279;1016282;-61
2023/02/20 02:05:27;;;;;;;;;;;;;;;2.97;99.26;99246.58;67810;1280;1016132;-61
2023/02/20 02:08:30;;;;;;;;;;;;;;;2.89;99.60;99253.50;67730;1279;1016447;-61
2023/02/20 02:11:32;;;;;;;;;;;;;;;2.99;99.30;99253.10;67756;1279;1016512;-61
2023/02/20 02:14:35;;;;;;;;;;;;;;;2.97;99.59;99249.01;67783;1279;1016028;-61
2023/02/20 02:17:38;;;;;;;;;;;;;;;2.94;99.82;99256.49;67740;1279;1016462;-62
2023/02/20 02:20:40;;;;;;;;;;;;;;;2.99;99.38;99252.08;67719;1279;1016439;-61
2023/02/20 02:23:43;;;;;;;;;;;;;;;3.03;99.06;99247.48;67789;1279;1016449;-61
2023/02/20 02:26:45;;;;;;;;;;;;;;;3.06;98.97;99242.73;67785;1279;1016460;-61
2023/02/20 02:29:47;;;;;;;;;;;;;;;3.08;98.60;99236.65;67784;1279;1016446;-61
2023/02/20 02:32:50;;;;;;;;;;;;;;;3.05;98.51;99237.76;67733;1279;1016416;-61
2023/02/20 02:35:53;;;;;;;;;;;;;;;3.02;98.80;99239.23;67767;1279;1016365;-61
2023/02/20 02:38:55;;;;;;;;;;;;;;;3.01;99.04;99242.87;67794;1279;1018469;-62
2023/02/20 02:41:58;;;;;;;;;;;;;;;3.05;98.65;99250.89;67741;1279;1015940;-61
2023/02/20 02:45:00;;;;;;;;;;;;;;;3.12;97.71;99251.08;65201;1278;6372828;-61
2023/02/20 02:48:03;;;;;;;;;;;;;;;3.23;96.77;99249.08;67747;1279;1016504;-62
2023/02/20 02:51:05;;;;;;;;;;;;;;;3.19;96.97;99237.76;67728;1279;1016517;-61
2023/02/20 02:54:07;;;;;;;;;;;;;;;3.18;96.91;99229.67;67761;1279;1016847;-61
2023/02/20 02:57:10;;;;;;;;;;;;;;;3.18;96.87;99215.85;67689;1279;1016517;-62
2023/02/20 03:00:12;;;;;;;;;;;;;;;3.16;96.96;99205.52;67810;1279;1016266;-61
2023/02/20 03:03:15;;;;;;;;;;;;;;;3.12;97.40;99202.86;67740;1279;1016283;-61
2023/02/20 03:06:17;;;;;;;;;;;;;;;3.15;97.19;99203.13;67767;1279;1016312;-61
2023/02/20 03:09:20;;;;;;;;;;;;;;;3.12;97.20;99205.10;67733;1279;1017040;-61
2023/02/20 03:12:22;;;;;;;;;;;;;;;3.16;96.90;99204.66;67753;1279;1018247;-61
2023/02/20 03:15:34;;;;;;;;;;;;;;;3.17;96.71;99206.20;67789;1279;1016433;-61
2023/02/20 03:18:37;;;;;;;;;;;;;;;3.16;96.70;99199.13;67788;1279;1016125;-61
2023/02/20 03:21:41;;;;;;;;;;;;;;;3.10;96.86;99204.10;67749;1279;1016371;-60
2023/02/20 03:24:55;;;;;;;;;;;;;;;3.11;96.93;99202.38;67759;1279;1016466;-61
2023/02/20 03:27:57;;;;;;;;;;;;;;;3.18;95.87;99192.17;67770;1279;1016891;-61
2023/02/20 03:30:59;;;;;;;;;;;;;;;3.18;95.92;99191.14;67783;1279;1016431;-61
2023/02/20 03:44:02;;;;;;;;;;;;;;;3.13;95.58;99202.65;67754;1279;1016469;-61
2023/02/20 03:47:04;;;;;;;;;;;;;;;3.10;95.65;99200.48;67733;1279;1015656;-61
2023/02/20 03:50:07;;;;;;;;;;;;;;;3.15;95.08;99198.45;67759;1279;1016440;-60
2023/02/20 03:53:09;;;;;;;;;;;;;;;3.13;94.93;99198.01;67759;1279;1016680;-61
2023/02/20 03:56:12;;;;;;;;;;;;;;;3.18;94.64;99199.09;67772;1279;1016447;-61
2023/02/20 03:59:14;;;;;;;;;;;;;;;3.19;94.69;99198.19;67723;1279;1016408;-61
2023/02/20 04:02:16;;;;;;;;;;;;;;;3.22;94.42;99196.39;67722;1279;1016441;-61
2023/02/20 04:05:19;;;;;;;;;;;;;;;3.24;94.81;99195.64;67739;1279;1016134;-61
2023/02/20 04:08:21;;;;;;;;;;;;;;;3.21;94.81;99192.27;67773;1279;1016952;-61
2023/02/20 04:11:24;;;;;;;;;;;;;;;3.16;95.36;99190.16;67704;1279;1016139;-61
2023/02/20 04:14:27;;;;;;;;;;;;;;;3.15;95.52;99187.58;67722;1279;1016455;-61
2023/02/20 04:17:29;;;;;;;;;;;;;;;3.12;95.67;99183.66;67775;1279;1016412;-61
2023/02/20 04:20:32;;;;;;;;;;;;;;;3.06;96.29;99172.94;67739;1279;1016346;-60
2023/02/20 04:23:34;;;;;;;;;;;;;;;3.05;96.26;99162.44;67717;1279;1016089;-61
2023/02/20 04:26:37;;;;;;;;;;;;;;;2.98;96.62;99164.48;67733;1279;1017287;-60
2023/02/20 04:29:39;;;;;;;;;;;;;;;2.96;96.96;99165.93;67799;1279;1016425;-61
2023/02/20 04:32:43;;;;;;;;;;;;;;;2.91;97.59;99166.04;67765;1279;1016054;-60
2023/02/20 04:35:46;;;;;;;;;;;;;;;2.98;97.07;99168.99;67739;1279;1018225;-60
2023/02/20 04:38:48;;;;;;;;;;;;;;;2.90;97.44;99168.13;67720;1279;1016325;-61
2023/02/20 04:41:51;;;;;;;;;;;;;;;2.95;97.45;99163.54;67761;1279;1016678;-60
2023/02/20 04:44:53;;;;;;;;;;;;;;;3.00;97.32;99155.98;67793;1279;1016350;-61
2023/02/20 04:47:56;;;;;;;;;;;;;;;3.06;96.86;99150.31;67798;1279;1016935;-61
2023/02/20 04:50:58;;;;;;;;;;;;;;;3.11;96.53;99144.83;67763;1279;1016389;-61
2023/02/20 04:54:00;;;;;;;;;;;;;;;3.07;96.89;99140.27;67711;1279;1016133;-61
2023/02/20 04:57:03;;;;;;;;;;;;;;;2.99;97.04;99131.98;67777;1279;1016375;-61
2023/02/20 05:00:06;;;;;;;;;;;;;;;2.98;97.18;99130.13;67789;1279;1016865;-61
2023/02/20 05:03:08;;;;;;;;;;;;;;;3.03;97.17;99123.59;67740;1279;1015867;-61
2023/02/20 05:06:11;;;;;;;;;;;;;;;3.10;96.64;99116.86;67721;1279;1016208;-61
2023/02/20 05:09:14;;;;;;;;;;;;;;;3.04;97.20;99114.59;67792;1279;1016275;-60
2023/02/20 05:12:16;;;;;;;;;;;;;;;2.98;97.69;99110.06;67754;1279;1016576;-60
2023/02/20 05:15:18;;;;;;;;;;;;;;;2.98;97.75;99119.22;67726;1279;1016887;-61
2023/02/20 05:18:21;;;;;;;;;;;;;;;2.98;97.88;99121.65;67737;1279;1016428;-61
2023/02/20 05:24:44;;;;;;;;;;;;;;;2.94;98.28;99121.58;67815;1279;1016510;-61
2023/02/20 05:27:46;;;;;;;;;;;;;;;2.90;98.86;99123.77;67755;1279;1016371;-61
2023/02/20 05:30:49;;;;;;;;;;;;;;;2.95;98.67;99125.52;67704;1279;1016126;-62
2023/02/20 05:33:52;;;;;;;;;;;;;;;2.91;98.90;99120.77;67829;1279;1016343;-61
2023/02/20 05:36:56;;;;;;;;;;;;;;;2.93;99.17;99118.84;67761;1279;1016444;-61
2023/02/20 05:39:58;;;;;;;;;;;;;;;3.02;98.82;99120.01;67766;1279;1016389;-61
2023/02/20 05:43:00;;;;;;;;;;;;;;;3.06;98.93;99119.55;67756;1279;1016298;-62
2023/02/20 05:46:03;;;;;;;;;;;;;;;3.09;99.04;99119.64;67718;1279;1016311;-61
2023/02/20 05:49:06;;;;;;;;;;;;;;;3.20;98.58;99118.67;67785;1279;1016327;-61
2023/02/20 05:52:11;;;;;;;;;;;;;;;3.27;98.54;99117.61;67760;1279;1018351;-61
2023/02/20 05:55:13;;;;;;;;;;;;;;;3.26;98.83;99107.09;67790;1279;1016092;-61
2023/02/20 05:58:16;;;;;;;;;;;;;;;3.34;98.73;99111.38;67785;1279;1016360;-61
2023/02/20 06:01:18;;;;;;;;;;;;;;;3.44;98.14;99109.40;67746;1279;1016371;-62
2023/02/20 06:04:21;;;;;;;;;;;;;;;3.44;98.37;99108.87;67764;1279;1016960;-61
2023/02/20 06:07:23;;;;;;;;;;;;;;;3.46;98.39;99109.00;67796;1279;1016112;-61
2023/02/20 06:10:26;;;;;;;;;;;;;;;3.54;98.23;99113.10;67768;1279;1016344;-62
2023/02/20 06:13:28;;;;;;;;;;;;;;;3.88;96.23;99110.59;67725;1279;1016494;-62
2023/02/20 06:16:31;;;;;;;;;;;;;;;3.96;95.94;99110.52;67698;1279;1016447;-61
2023/02/20 06:19:33;;;;;;;;;;;;;;;3.90;96.60;99106.52;67732;1279;1015966;-62
2023/02/20 06:22:36;;;;;;;;;;;;;;;3.96;96.15;99104.30;67719;1279;1016423;-61
2023/02/20 06:25:38;;;;;;;;;;;;;;;4.05;96.38;99111.98;67780;1279;1016402;-61
2023/02/20 06:28:41;;;;;;;;;;;;;;;4.00;96.21;99117.68;67799;1279;1016589;-61
2023/02/20 06:31:44;;;;;;;;;;;;;;;3.98;96.49;99113.41;67789;1279;1016525;-61
2023/02/20 06:34:46;;;;;;;;;;;;;;;4.00;96.81;99111.10;67732;1279;1016424;-61
2023/02/20 06:37:49;;;;;;;;;;;;;;;4.05;96.58;99106.61;67766;1279;1016297;-61
2023/02/20 06:40:51;;;;;;;;;;;;;;;4.16;96.44;99106.99;67671;1279;1016550;-61
2023/02/20 06:43:54;;;;;;;;;;;;;;;4.25;96.03;99101.15;67786;1279;1018882;-61
2023/02/20 06:46:56;;;;;;;;;;;;;;;4.26;96.06;99099.73;67699;1279;1016402;-62
2023/02/20 06:49:59;;;;;;;;;;;;;;;4.29;94.68;99102.10;67673;1279;1016414;-61
2023/02/20 06:53:01;;;;;;;;;;;;;;;4.38;94.35;99099.39;67731;1279;1016531;-61
2023/02/20 06:56:03;;;;;;;;;;;;;;;4.43;93.84;99093.17;67736;1279;1016536;-61
2023/02/20 06:59:07;;;;;;;;;;;;;;;4.44;93.80;99095.55;67757;1279;1016060;-61
2023/02/20 07:02:10;;;;;;;;;;;;;;;4.52;93.14;99093.08;67785;1279;1016166;-61
2023/02/20 07:05:12;;;;;;;;;;;;;;;4.72;92.10;99081.14;67792;1279;1016480;-61
2023/02/20 07:08:15;;;;;;;;;;;;;;;4.78;91.39;99077.66;67719;1279;1015971;-61
2023/02/20 07:11:17;;;;;;;;;;;;;;;4.79;90.46;99076.08;67726;1279;1016825;-61
2023/02/20 07:14:20;;;;;;;;;;;;;;;4.88;89.87;99075.07;67791;1279;1016079;-61
2023/02/20 07:17:22;;;;;;;;;;;;;;;4.92;89.33;99079.11;67766;1279;1019619;-61
2023/02/20 07:20:25;;;;;;;;;;;;;;;4.73;89.35;99068.66;67739;1279;1016514;-61
2023/02/20 07:23:27;;;;;;;;;;;;;;;4.91;88.40;99052.45;67746;1279;1016571;-61
2023/02/20 07:26:30;;;;;;;;;;;;;;;4.96;87.10;99047.95;67747;1279;1016440;-62
2023/02/20 07:29:32;;;;;;;;;;;;;;;5.14;86.64;99037.98;67817;1279;1016271;-61
2023/02/20 07:32:34;;;;;;;;;;;;;;;5.25;85.63;99038.27;67699;1279;1016357;-61
2023/02/20 07:35:37;;;;;;;;;;;;;;;5.26;84.42;99041.02;67759;1279;1016322;-62
2023/02/20 07:38:40;;;;;;;;;;;;;;;5.40;83.76;99047.09;67764;1279;1018913;-61
2023/02/20 07:41:42;;;;;;;;;;;;;;;5.52;83.14;99037.27;67788;1279;1016361;-61
2023/02/20 07:44:45;;;;;;;;;;;;;;;5.63;82.36;99030.32;67805;1279;1016351;-62
2023/02/20 07:47:48;;;;;;;;;;;;;;;5.70;82.82;99028.83;67738;1279;1017790;-61
2023/02/20 07:50:51;;;;;;;;;;;;;;;5.89;82.63;99029.51;67783;1279;1016279;-61
2023/02/20 07:53:54;;;;;;;;;;;;;;;6.25;82.30;99020.67;67761;1279;1017696;-61
2023/02/20 07:56:56;;;;;;;;;;;;;;;6.50;79.79;99019.98;67791;1279;1016555;-62
2023/02/20 07:59:59;;;;;;;;;;;;;;;6.67;77.97;99010.77;67756;1279;1016517;-61
2023/02/20 08:03:01;;;;;;;;;;;;;;;6.84;79.12;98997.18;67696;1279;1016696;-62
2023/02/20 08:06:04;;;;;;;;;;;;;;;6.90;76.58;98995.53;67708;1279;1016097;-61
2023/02/20 08:09:06;;;;;;;;;;;;;;;6.92;75.67;98987.64;67750;1279;1016197;-62
2023/02/20 08:12:09;;;;;;;;;;;;;;;7.05;75.41;98990.04;67799;1279;1016239;-61
2023/02/20 08:15:12;;;;;;;;;;;;;;;7.10;74.28;98991.91;67778;1279;1016533;-61
2023/02/20 08:18:14;;;;;;;;;;;;;;;7.13;74.53;98986.75;67746;1279;1016473;-61
2023/02/20 08:21:17;;;;;;;;;;;;;;;6.96;75.09;98993.73;67785;1279;1016344;-61
2023/02/20 08:24:19;;;;;;;;;;;;;;;6.67;75.07;99001.05;67766;1279;1016410;-61
2023/02/20 08:27:22;;;;;;;;;;;;;;;6.66;77.05;98992.02;67764;1279;1016532;-61
2023/02/20 08:30:24;;;;;;;;;;;;;;;6.56;77.17;98990.02;67696;1279;1016162;-61
2023/02/20 08:33:27;;;;;;;;;;;;;;;6.55;77.04;98969.08;67726;1279;1016229;-62
2023/02/20 08:36:30;;;;;;;;;;;;;;;6.56;77.15;98984.99;67768;1279;1016389;-62
2023/02/20 08:39:32;;;;;;;;;;;;;;;6.69;77.59;98987.75;67732;1279;1016487;-62
2023/02/20 08:42:35;;;;;;;;;;;;;;;6.81;78.59;98971.97;67732;1279;1016616;-61
2023/02/20 08:45:37;;;;;;;;;;;;;;;6.87;77.32;98955.85;67754;1279;1016201;-62
2023/02/20 08:48:40;;;;;;;;;;;;;;;6.89;76.70;98945.67;67774;1279;1016513;-62
2023/02/20 08:51:43;;;;;;;;;;;;;;;6.84;77.64;98941.21;67752;1279;1016335;-61
2023/02/20 08:54:45;;;;;;;;;;;;;;;6.79;78.60;98930.14;67732;1279;1017969;-61
2023/02/20 08:57:48;;;;;;;;;;;;;;;6.79;77.60;98929.80;67764;1279;1016451;-61
2023/02/20 09:00:50;;;;;;;;;;;;;;;6.78;79.03;98934.02;67758;1279;1016412;-61
2023/02/20 09:03:53;;;;;;;;;;;;;;;6.81;79.43;98928.65;67707;1279;1016452;-61
2023/02/20 09:06:55;;;;;;;;;;;;;;;6.80;79.53;98931.84;67795;1279;1016369;-61
2023/02/20 09:09:58;;;;;;;;;;;;;;;6.84;79.33;98922.98;67784;1279;1017766;-61
2023/02/20 09:13:00;;;;;;;;;;;;;;;6.81;79.10;98921.55;67815;1279;1016490;-61
2023/02/20 09:16:02;;;;;;;;;;;;;;;6.73;80.14;98907.29;67721;1279;1016486;-61
2023/02/20 09:19:06;;;;;;;;;;;;;;;6.77;81.05;98912.00;67753;1279;1016565;-61
2023/02/20 09:22:08;;;;;;;;;;;;;;;6.88;81.27;98905.59;67753;1279;1016133;-61
2023/02/20 09:25:11;;;;;;;;;;;;;;;7.06;81.08;98907.58;67719;1279;1016220;-61
2023/02/20 09:28:13;;;;;;;;;;;;;;;7.23;80.91;98908.91;67737;1279;1016129;-61
2023/02/20 09:31:15;;;;;;;;;;;;;;;7.37;80.71;98908.23;67772;1279;1016125;-61
2023/02/20 09:34:18;;;;;;;;;;;;;;;7.51;80.52;98896.80;67805;1279;1016462;-62
2023/02/20 09:37:20;;;;;;;;;;;;;;;7.58;79.83;98897.31;67694;1279;1016846;-61
2023/02/20 09:40:23;;;;;;;;;;;;;;;7.58;80.55;98881.67;67710;1279;1016479;-61
2023/02/20 09:43:25;;;;;;;;;;;;;;;7.73;80.77;98881.51;67768;1279;1016385;-61
2023/02/20 09:46:28;;;;;;;;;;;;;;;7.66;80.49;98880.10;67764;1279;1016277;-61
2023/02/20 09:49:32;;;;;;;;;;;;;;;7.60;81.08;98869.90;67717;1279;1016504;-61
2023/02/20 09:52:35;;;;;;;;;;;;;;;7.64;81.99;98858.59;67788;1279;1016487;-61
2023/02/20 09:55:37;;;;;;;;;;;;;;;7.71;81.50;98856.53;67748;1279;1016098;-61
2023/02/20 09:58:40;;;;;;;;;;;;;;;7.68;82.33;98843.46;67786;1279;1016372;-61
2023/02/20 10:01:43;;;;;;;;;;;;;;;7.85;83.43;98835.61;67722;1279;1016074;-61
2023/02/20 10:04:45;;;;;;;;;;;;;;;7.85;83.67;98825.56;67736;1279;1016376;-61
2023/02/20 10:07:48;;;;;;;;;;;;;;;7.67;85.36;98828.17;67792;1279;1016476;-61
2023/02/20 10:10:50;;;;;;;;;;;;;;;7.57;86.28;98814.90;67762;1279;1016258;-61
2023/02/20 10:13:53;;;;;;;;;;;;;;;7.62;87.22;98809.11;67751;1279;1016520;-61
2023/02/20 10:16:55;;;;;;;;;;;;;;;7.55;88.96;98810.66;67786;1279;1016398;-61
2023/02/20 10:19:58;;;;;;;;;;;;;;;7.49;89.42;98806.97;67778;1279;1016449;-61
2023/02/20 10:23:01;;;;;;;;;;;;;;;7.42;90.40;98785.73;67737;1279;1016201;-61
2023/02/20 10:26:04;;;;;;;;;;;;;;;7.41;91.03;98789.59;67755;1279;1016178;-61
2023/02/20 10:29:07;;;;;;;;;;;;;;;7.47;91.10;98784.10;67800;1279;1016187;-61
2023/02/20 10:32:10;;;;;;;;;;;;;;;7.58;91.55;98760.39;67768;1279;1016174;-62
2023/02/20 10:35:12;;;;;;;;;;;;;;;7.74;92.29;98750.02;67768;1279;1016491;-61
2023/02/20 10:38:15;;;;;;;;;;;;;;;7.97;92.39;98746.95;67745;1279;1016404;-61
2023/02/20 10:41:17;;;;;;;;;;;;;;;8.18;90.87;98745.13;67722;1279;1015972;-61
2023/02/20 10:44:20;;;;;;;;;;;;;;;8.24;90.27;98721.14;67753;1279;1018162;-61
2023/02/20 10:47:22;;;;;;;;;;;;;;;8.13;89.69;98729.20;67781;1279;1016317;-61
2023/02/20 10:50:24;;;;;;;;;;;;;;;8.06;90.66;98728.00;67758;1279;1016451;-61
2023/02/20 10:53:30;;;;;;;;;;;;;;;8.04;91.01;98706.33;67760;1279;1016306;-61
2023/02/20 10:56:33;;;;;;;;;;;;;;;8.03;92.91;98690.05;67716;1279;1016473;-61
2023/02/20 10:59:35;;;;;;;;;;;;;;;8.11;92.23;98669.61;67731;1279;1016210;-61
2023/02/20 11:02:38;;;;;;;;;;;;;;;8.10;91.74;98657.41;67786;1279;1016289;-62
2023/02/20 11:05:40;;;;;;;;;;;;;;;8.18;93.05;98649.54;67738;1279;1016474;-61
2023/02/20 11:08:43;;;;;;;;;;;;;;;8.24;91.74;98637.22;67773;1279;1016291;-61
2023/02/20 11:11:45;;;;;;;;;;;;;;;8.42;91.80;98626.80;67724;1279;1016478;-61
2023/02/20 11:14:48;;;;;;;;;;;;;;;8.55;90.25;98630.12;67704;1279;1016242;-62
2023/02/20 11:17:50;;;;;;;;;;;;;;;8.63;90.71;98610.15;67741;1279;1016794;-61
2023/02/20 11:20:52;;;;;;;;;;;;;;;8.80;89.64;98604.50;67810;1279;1016076;-61
2023/02/20 11:23:55;;;;;;;;;;;;;;;8.83;88.56;98604.48;67748;1279;1016466;-61
2023/02/20 11:26:59;;;;;;;;;;;;;;;8.93;88.64;98590.18;67744;1279;1020101;-61
2023/02/20 11:30:02;;;;;;;;;;;;;;;9.02;87.59;98580.40;67741;1279;1016433;-61
2023/02/20 11:33:04;;;;;;;;;;;;;;;8.91;87.87;98580.15;67757;1279;1016371;-61
2023/02/20 11:36:07;;;;;;;;;;;;;;;8.98;87.05;98571.02;67803;1279;1016655;-61
2023/02/20 11:39:10;;;;;;;;;;;;;;;8.97;87.16;98557.63;67769;1279;1016412;-61
2023/02/20 11:42:12;;;;;;;;;;;;;;;9.01;87.21;98561.66;67720;1279;1016320;-61
2023/02/20 11:45:15;;;;;;;;;;;;;;;8.90;87.74;98542.20;67784;1279;1017057;-61
2023/02/20 11:48:18;;;;;;;;;;;;;;;8.85;87.94;98539.02;67767;1279;1017364;-61
2023/02/20 11:51:21;;;;;;;;;;;;;;;8.86;87.12;98520.12;67723;1279;1016468;-62
2023/02/20 11:54:24;;;;;;;;;;;;;;;8.99;86.72;98535.57;67750;1279;1018552;-61
2023/02/20 12:01:12;;;;;;;;;;;;;;;8.90;87.33;98503.98;67768;1279;1016337;-61
2023/02/20 12:04:15;;;;;;;;;;;;;;;9.18;86.92;98499.56;67752;1279;1015791;-62
2023/02/20 12:07:18;;;;;;;;;;;;;;;9.29;86.67;98498.52;67781;1279;1017084;-61
2023/02/20 12:10:20;;;;;;;;;;;;;;;9.30;86.48;98486.44;67730;1279;1016536;-61
2023/02/20 12:13:23;;;;;;;;;;;;;;;9.20;86.27;98467.31;67768;1279;1016451;-61
2023/02/20 12:16:26;;;;;;;;;;;;;;;9.17;86.19;98467.18;67754;1279;1016419;-62
2023/02/20 12:19:29;;;;;;;;;;;;;;;9.20;87.03;98439.24;67756;1279;1016882;-61
2023/02/20 12:22:31;;;;;;;;;;;;;;;9.18;87.46;98431.67;67758;1279;1015884;-61
2023/02/20 12:25:34;;;;;;;;;;;;;;;9.16;86.70;98452.93;67789;1279;1016448;-61
2023/02/20 12:28:37;;;;;;;;;;;;;;;9.25;86.64;98447.52;67752;1279;1016243;-61
2023/02/20 12:31:39;;;;;;;;;;;;;;;9.34;86.18;98427.04;67754;1279;1016153;-62
2023/02/20 12:34:42;;;;;;;;;;;;;;;9.73;85.60;98392.33;67784;1279;1018906;-62
2023/02/20 12:37:44;;;;;;;;;;;;;;;9.85;85.28;98395.35;67732;1279;1016727;-61
2023/02/20 12:40:47;;;;;;;;;;;;;;;9.90;84.52;98395.42;67759;1279;1017399;-61
2023/02/20 12:43:50;;;;;;;;;;;;;;;10.05;83.38;98376.44;67733;1279;1016378;-61
2023/02/20 12:46:53;;;;;;;;;;;;;;;10.16;82.35;98385.52;67736;1279;1016478;-61
2023/02/20 12:49:55;;;;;;;;;;;;;;;10.38;81.97;98361.35;67753;1279;1018023;-61
2023/02/20 12:52:58;;;;;;;;;;;;;;;10.50;81.25;98361.41;67778;1279;1016795;-61
2023/02/20 12:56:01;;;;;;;;;;;;;;;10.58;80.73;98341.16;67804;1279;1016341;-62
2023/02/20 12:59:03;;;;;;;;;;;;;;;10.56;79.75;98345.78;67724;1279;1016316;-61
2023/02/20 13:02:06;;;;;;;;;;;;;;;10.55;80.90;98328.23;67733;1279;1016298;-60
2023/02/20 13:05:08;;;;;;;;;;;;;;;10.45;80.82;98331.37;67739;1279;1016349;-59
2023/02/20 13:08:11;;;;;;;;;;;;;;;10.41;81.06;98322.36;67745;1279;1015971;-59
2023/02/20 13:11:14;;;;;;;;;;;;;;;10.51;80.88;98318.30;67747;1279;1016264;-60
2023/02/20 13:14:16;;;;;;;;;;;;;;;10.66;80.72;98296.69;67769;1279;1016318;-60
2023/02/20 13:17:18;;;;;;;;;;;;;;;10.79;78.94;98292.79;67786;1279;1017653;-59
2023/02/20 13:20:21;;;;;;;;;;;;;;;10.91;79.91;98266.66;67803;1279;1015866;-60
2023/02/20 13:23:23;;;;;;;;;;;;;;;10.98;80.79;98257.90;67729;1279;1016386;-59
2023/02/20 13:26:26;;;;;;;;;;;;;;;10.98;80.29;98250.73;67742;1279;1016454;-59
2023/02/20 13:29:28;;;;;;;;;;;;;;;11.14;79.71;98248.66;67746;1279;1016193;-60
2023/02/20 13:32:31;;;;;;;;;;;;;;;11.28;78.79;98237.19;67789;1279;1016885;-61
2023/02/20 13:35:34;;;;;;;;;;;;;;;11.38;78.75;98227.73;67696;1279;1016221;-60
2023/02/20 13:38:37;;;;;;;;;;;;;;;11.16;78.49;98225.48;67668;1279;1017062;-60
2023/02/20 13:41:39;;;;;;;;;;;;;;;11.13;79.29;98208.68;67781;1279;1016416;-61
2023/02/20 13:44:41;;;;;;;;;;;;;;;11.25;78.68;98200.13;67706;1279;1016231;-61
2023/02/20 13:47:44;;;;;;;;;;;;;;;11.36;77.99;98178.18;67731;1279;1016936;-60
2023/02/20 13:50:46;;;;;;;;;;;;;;;11.24;77.09;98167.63;67766;1279;1016286;-60
2023/02/20 13:53:49;;;;;;;;;;;;;;;11.35;77.68;98165.11;67758;1279;1016282;-61
2023/02/20 13:56:51;;;;;;;;;;;;;;;11.36;77.99;98146.44;67789;1279;1016156;-62
2023/02/20 13:59:54;;;;;;;;;;;;;;;11.25;78.27;98144.65;67739;1279;1016496;-60
2023/02/20 14:02:56;;;;;;;;;;;;;;;11.19;78.07;98129.21;67737;1279;1016230;-59
2023/02/20 14:05:59;;;;;;;;;;;;;;;11.22;78.13;98137.49;67773;1279;1016254;-60
2023/02/20 14:09:01;;;;;;;;;;;;;;;11.27;78.22;98122.11;67733;1279;1016442;-61
2023/02/20 14:12:04;;;;;;;;;;;;;;;11.42;77.42;98132.36;67746;1279;1016409;-60
2023/02/20 14:15:07;;;;;;;;;;;;;;;11.62;77.09;98112.48;67669;1279;1016456;-61
2023/02/20 14:18:09;;;;;;;;;;;;;;;11.58;77.09;98115.23;67788;1279;1016291;-59
2023/02/20 14:21:12;;;;;;;;;;;;;;;11.62;77.03;98105.95;67749;1279;1016211;-60
2023/02/20 14:24:14;;;;;;;;;;;;;;;11.66;77.21;98113.08;67753;1279;1016456;-60
2023/02/20 14:27:17;;;;;;;;;;;;;;;11.75;77.21;98099.69;67773;1279;1015992;-59
2023/02/20 14:30:20;;;;;;;;;;;;;;;11.70;76.96;98079.83;67752;1279;1016713;-60
2023/02/20 14:33:22;;;;;;;;;;;;;;;11.69;77.22;98071.14;67699;1279;1016376;-59
2023/02/20 14:36:25;;;;;;;;;;;;;;;11.63;77.31;98060.91;67652;1279;1016406;-60
2023/02/20 14:39:27;;;;;;;;;;;;;;;11.72;77.15;98063.70;67810;1279;1016433;-60
2023/02/20 14:42:30;;;;;;;;;;;;;;;11.72;77.09;98076.52;67778;1279;1016383;-60
2023/02/20 14:45:33;;;;;;;;;;;;;;;11.75;77.25;98072.41;65440;1278;5381849;-60
2023/02/20 14:48:44;;;;;;;;;;;;;;;11.74;76.87;98063.05;67695;1279;1016197;-60
2023/02/20 14:51:46;;;;;;;;;;;;;;;11.75;77.12;98073.63;67783;1279;1016870;-60
2023/02/20 14:54:48;;;;;;;;;;;;;;;11.55;77.59;98070.08;67656;1279;1017301;-60
2023/02/20 14:57:51;;;;;;;;;;;;;;;11.64;76.99;98077.80;67732;1279;1018719;-60
2023/02/20 15:00:56;;;;;;;;;;;;;;;11.75;77.44;98080.31;67780;1279;1016445;-60
2023/02/20 15:03:59;;;;;;;;;;;;;;;11.63;77.90;98078.98;67740;1279;1018891;-60
2023/02/20 15:07:02;;;;;;;;;;;;;;;11.68;77.64;98085.74;67769;1279;1018073;-61
2023/02/20 15:10:04;;;;;;;;;;;;;;;11.72;77.56;98073.13;67802;1279;1016302;-60
2023/02/20 15:13:07;;;;;;;;;;;;;;;11.68;77.50;98062.80;67570;1281;1016584;-60
2023/02/20 15:16:09;;;;;;;;;;;;;;;11.65;77.62;98080.70;67588;1281;1016256;-60
2023/02/20 15:19:12;;;;;;;;;;;;;;;11.64;77.32;98079.56;67616;1281;1016387;-59
2023/02/20 15:22:14;;;;;;;;;;;;;;;11.65;77.80;98073.71;67553;1281;1016289;-61
2023/02/20 15:25:17;;;;;;;;;;;;;;;11.54;78.71;98067.73;67572;1281;1015709;-60
2023/02/20 15:28:20;;;;;;;;;;;;;;;11.54;78.43;98097.63;67610;1281;1016262;-60
2023/02/20 15:31:23;;;;;;;;;;;;;;;11.47;79.04;98102.92;67636;1281;1016710;-60
2023/02/20 15:34:26;;;;;;;;;;;;;;;11.45;79.12;98106.71;67614;1281;1015809;-60
2023/02/20 15:37:28;;;;;;;;;;;;;;;11.56;77.99;98115.67;67604;1281;1016201;-61
2023/02/20 15:40:31;;;;;;;;;;;;;;;11.68;77.79;98118.50;67568;1281;1016476;-60
2023/02/20 15:43:34;;;;;;;;;;;;;;;11.68;77.54;98123.86;67623;1281;1016505;-60
2023/02/20 15:46:37;;;;;;;;;;;;;;;11.80;77.63;98125.82;67581;1281;1016261;-60
2023/02/20 15:49:40;;;;;;;;;;;;;;;11.82;77.68;98137.58;67662;1281;1016421;-60